sensor_id;sensor_type;location;lat;lon;timestamp;pressure;altitude;pressure_sealevel;temperature;humidity
31403;BME280;18039;52.188;21.024;2023-02-21T00:02:25;75940.22;;;-141.45;100.00
31403;BME280;18039;52.188;21.024;2023-02-21T00:05:11;75940.22;;;-141.45;100.00
31403;BME280;18039;52.188;21.024;2023-02-21T00:07:57;75936.19;;;-141.45;100.00
31403;BME280;18039;52.188;21.024;2023-02-21T00:10:43;75952.38;;;-141.45;100.00
31403;BME280;18039;52.188;21.024;2023-02-21T00:13:29;75934.16;;;-141.45;100.00
31403;BME280;18039;52.188;21.024;2023-02-21T00:16:16;75952.38;;;-141.45;100.00
31403;BME280;18039;52.188;21.024;2023-02-21T00:19:03;75944.28;;;-141.45;100.00
31403;BME280;18039;52.188;21.024;2023-02-21T00:21:49;75948.34;;;-141.45;100.00
31403;BME280;18039;52.188;21.024;2023-02-21T00:24:35;75940.22;;;-141.45;100.00
31403;BME280;18039;52.188;21.024;2023-02-21T00:27:24;75917.94;;;-141.45;100.00
31403;BME280;18039;52.188;21.024;2023-02-21T00:30:11;75932.13;;;-141.45;100.00
31403;BME280;18039;52.188;21.024;2023-02-21T00:32:57;75928.06;;;-141.45;100.00
31403;BME280;18039;52.188;21.024;2023-02-21T00:35:43;75924.00;;;-141.45;100.00
31403;BME280;18039;52.188;21.024;2023-02-21T00:38:29;75924.00;;;-141.45;100.00
31403;BME280;18039;52.188;21.024;2023-02-21T00:41:16;75917.94;;;-141.45;100.00
31403;BME280;18039;52.188;21.024;2023-02-21T00:44:01;75926.03;;;-141.45;100.00
31403;BME280;18039;52.188;21.024;2023-02-21T00:46:48;75926.03;;;-141.45;100.00
31403;BME280;18039;52.188;21.024;2023-02-21T00:49:34;75940.22;;;-141.45;100.00
31403;BME280;18039;52.188;21.024;2023-02-21T00:52:20;75928.06;;;-141.45;100.00
31403;BME280;18039;52.188;21.024;2023-02-21T00:55:06;75919.97;;;-141.45;100.00
31403;BME280;18039;52.188;21.024;2023-02-21T00:57:54;75907.81;;;-141.45;100.00
31403;BME280;18039;52.188;21.024;2023-02-21T01:00:40;75907.81;;;-141.45;100.00
31403;BME280;18039;52.188;21.024;2023-02-21T01:03:26;75932.13;;;-141.45;100.00
31403;BME280;18039;52.188;21.024;2023-02-21T01:06:12;75917.94;;;-141.45;100.00
31403;BME280;18039;52.188;21.024;2023-02-21T01:08:58;75919.97;;;-141.45;100.00
31403;BME280;18039;52.188;21.024;2023-02-21T01:11:44;75928.06;;;-141.45;100.00
31403;BME280;18039;52.188;21.024;2023-02-21T01:14:31;75932.13;;;-141.45;100.00
31403;BME280;18039;52.188;21.024;2023-02-21T01:17:17;75922.00;;;-141.45;100.00
31403;BME280;18039;52.188;21.024;2023-02-21T01:20:03;75936.19;;;-141.45;100.00
31403;BME280;18039;52.188;21.024;2023-02-21T01:22:49;75948.34;;;-141.45;100.00
31403;BME280;18039;52.188;21.024;2023-02-21T01:25:35;75960.50;;;-141.45;100.00
31403;BME280;18039;52.188;21.024;2023-02-21T01:28:22;75940.22;;;-141.45;100.00
31403;BME280;18039;52.188;21.024;2023-02-21T01:31:08;75944.28;;;-141.45;100.00
31403;BME280;18039;52.188;21.024;2023-02-21T01:33:53;75956.44;;;-141.45;100.00
31403;BME280;18039;52.188;21.024;2023-02-21T01:36:40;75952.38;;;-141.45;100.00
31403;BME280;18039;52.188;21.024;2023-02-21T01:39:26;75919.97;;;-141.45;100.00
31403;BME280;18039;52.188;21.024;2023-02-21T01:42:13;75940.22;;;-141.45;100.00
31403;BME280;18039;52.188;21.024;2023-02-21T01:48:19;75930.09;;;-141.45;100.00
31403;BME280;18039;52.188;21.024;2023-02-21T01:51:07;75930.09;;;-141.45;100.00
31403;BME280;18039;52.188;21.024;2023-02-21T01:53:55;75915.91;;;-141.45;100.00
31403;BME280;18039;52.188;21.024;2023-02-21T01:56:41;75934.16;;;-141.45;100.00
31403;BME280;18039;52.188;21.024;2023-02-21T01:59:28;75932.13;;;-141.45;100.00
31403;BME280;18039;52.188;21.024;2023-02-21T02:02:23;75922.00;;;-141.45;99.60
31403;BME280;18039;52.188;21.024;2023-02-21T02:05:11;75911.84;;;-141.45;98.27
31403;BME280;18039;52.188;21.024;2023-02-21T02:07:57;75907.81;;;-141.45;95.22
31403;BME280;18039;52.188;21.024;2023-02-21T02:10:44;75891.59;;;-141.45;93.64
31403;BME280;18039;52.188;21.024;2023-02-21T02:22:22;75883.47;;;-141.45;92.02
31403;BME280;18039;52.188;21.024;2023-02-21T02:24:59;75883.47;;;-141.45;91.82
31403;BME280;18039;52.188;21.024;2023-02-21T02:31:05;75879.44;;;-141.45;88.28
31403;BME280;18039;52.188;21.024;2023-02-21T02:47:52;75851.06;;;-141.45;79.76
31403;BME280;18039;52.188;21.024;2023-02-21T02:50:21;75855.09;;;-141.45;79.49
31403;BME280;18039;52.188;21.024;2023-02-21T02:52:52;75867.28;;;-141.45;80.50
31403;BME280;18039;52.188;21.024;2023-02-21T02:55:33;75877.41;;;-141.45;79.62
31403;BME280;18039;52.188;21.024;2023-02-21T02:58:02;75887.53;;;-141.45;79.42
31403;BME280;18039;52.188;21.024;2023-02-21T03:00:32;75871.31;;;-141.45;80.25
31403;BME280;18039;52.188;21.024;2023-02-21T03:06:12;75877.41;;;-141.45;80.67
31403;BME280;18039;52.188;21.024;2023-02-21T03:08:50;75875.38;;;-141.45;81.00
31403;BME280;18039;52.188;21.024;2023-02-21T03:11:22;75867.28;;;-141.45;80.14
31403;BME280;18039;52.188;21.024;2023-02-21T03:13:59;75871.31;;;-141.45;80.20
31403;BME280;18039;52.188;21.024;2023-02-21T03:16:49;75867.28;;;-141.45;78.66
31403;BME280;18039;52.188;21.024;2023-02-21T03:19:34;75847.00;;;-141.45;78.95
31403;BME280;18039;52.188;21.024;2023-02-21T03:22:10;75875.38;;;-141.45;79.17
31403;BME280;18039;52.188;21.024;2023-02-21T03:24:41;75859.16;;;-141.45;77.90
31403;BME280;18039;52.188;21.024;2023-02-21T03:27:10;75873.34;;;-141.45;77.60
31403;BME280;18039;52.188;21.024;2023-02-21T03:29:52;75851.06;;;-141.45;77.45
31403;BME280;18039;52.188;21.024;2023-02-21T03:33:08;75871.31;;;-141.45;77.45
31403;BME280;18039;52.188;21.024;2023-02-21T03:35:17;75879.44;;;-141.45;77.45
31403;BME280;18039;52.188;21.024;2023-02-21T03:37:51;75869.28;;;-141.45;76.59
31403;BME280;18039;52.188;21.024;2023-02-21T03:40:28;75875.38;;;-141.45;76.84
31403;BME280;18039;52.188;21.024;2023-02-21T03:43:00;75883.47;;;-141.45;75.97
31403;BME280;18039;52.188;21.024;2023-02-21T03:45:32;75877.41;;;-141.45;75.06
31403;BME280;18039;52.188;21.024;2023-02-21T03:48:12;75883.47;;;-141.45;74.39
31403;BME280;18039;52.188;21.024;2023-02-21T03:50:50;75871.31;;;-141.45;74.45
31403;BME280;18039;52.188;21.024;2023-02-21T03:53:18;75879.44;;;-141.45;74.42
31403;BME280;18039;52.188;21.024;2023-02-21T03:55:45;75847.00;;;-141.45;74.14
31403;BME280;18039;52.188;21.024;2023-02-21T03:58:19;75899.69;;;-141.45;73.60
31403;BME280;18039;52.188;21.024;2023-02-21T04:00:47;75889.56;;;-141.45;73.02
31403;BME280;18039;52.188;21.024;2023-02-21T04:03:16;75885.50;;;-141.45;72.01
31403;BME280;18039;52.188;21.024;2023-02-21T04:05:50;75903.75;;;-141.45;70.83
31403;BME280;18039;52.188;21.024;2023-02-21T04:08:18;75879.44;;;-141.45;71.46
31403;BME280;18039;52.188;21.024;2023-02-21T04:10:45;75911.84;;;-141.45;70.42
31403;BME280;18039;52.188;21.024;2023-02-21T04:13:20;75909.81;;;-141.45;69.84
31403;BME280;18039;52.188;21.024;2023-02-21T04:15:49;75919.97;;;-141.45;70.25
31403;BME280;18039;52.188;21.024;2023-02-21T04:18:17;75917.94;;;-141.45;69.49
31403;BME280;18039;52.188;21.024;2023-02-21T04:20:46;75911.84;;;-141.45;69.13
31403;BME280;18039;52.188;21.024;2023-02-21T04:23:18;75944.28;;;-141.45;70.96
31403;BME280;18039;52.188;21.024;2023-02-21T04:25:46;75932.13;;;-141.45;70.67
31403;BME280;18039;52.188;21.024;2023-02-21T04:28:20;75944.28;;;-141.45;70.37
31403;BME280;18039;52.188;21.024;2023-02-21T04:30:47;75885.50;;;-141.45;69.87
31403;BME280;18039;52.188;21.024;2023-02-21T04:33:15;75940.22;;;-141.45;69.67
31403;BME280;18039;52.188;21.024;2023-02-21T04:35:42;75932.13;;;-141.45;68.74
31403;BME280;18039;52.188;21.024;2023-02-21T04:38:19;75940.22;;;-141.45;70.23
31403;BME280;18039;52.188;21.024;2023-02-21T04:40:46;75952.38;;;-141.45;69.92
31403;BME280;18039;52.188;21.024;2023-02-21T04:43:13;75956.44;;;-141.45;69.92
31403;BME280;18039;52.188;21.024;2023-02-21T04:45:41;75968.59;;;-141.45;70.58
31403;BME280;18039;52.188;21.024;2023-02-21T04:48:08;75970.63;;;-141.45;69.65
31403;BME280;18039;52.188;21.024;2023-02-21T04:50:35;75956.44;;;-141.45;69.81
31403;BME280;18039;52.188;21.024;2023-02-21T04:53:02;75972.66;;;-141.45;69.24
31403;BME280;18039;52.188;21.024;2023-02-21T04:55:29;75964.56;;;-141.45;69.43
31403;BME280;18039;52.188;21.024;2023-02-21T04:57:57;75968.59;;;-141.45;69.36
31403;BME280;18039;52.188;21.024;2023-02-21T05:00:24;75964.56;;;-141.45;68.68
31403;BME280;18039;52.188;21.024;2023-02-21T05:02:51;75980.75;;;-141.45;69.75
31403;BME280;18039;52.188;21.024;2023-02-21T05:05:19;75980.75;;;-141.45;70.03
31403;BME280;18039;52.188;21.024;2023-02-21T05:07:47;76009.13;;;-141.45;69.88
31403;BME280;18039;52.188;21.024;2023-02-21T05:10:15;75976.72;;;-141.45;70.14
31403;BME280;18039;52.188;21.024;2023-02-21T05:12:43;75974.69;;;-141.45;69.94
31403;BME280;18039;52.188;21.024;2023-02-21T05:15:11;75980.75;;;-141.45;70.39
31403;BME280;18039;52.188;21.024;2023-02-21T05:17:41;75960.50;;;-141.45;69.96
31403;BME280;18039;52.188;21.024;2023-02-21T05:20:08;75976.72;;;-141.45;70.75
31403;BME280;18039;52.188;21.024;2023-02-21T05:22:39;75960.50;;;-141.45;69.93
31403;BME280;18039;52.188;21.024;2023-02-21T05:25:17;75944.28;;;-141.45;69.55
31403;BME280;18039;52.188;21.024;2023-02-21T05:27:45;75968.59;;;-141.45;68.35
31403;BME280;18039;52.188;21.024;2023-02-21T05:30:14;75958.47;;;-141.45;68.28
31403;BME280;18039;52.188;21.024;2023-02-21T05:32:42;75950.38;;;-141.45;67.58
31403;BME280;18039;52.188;21.024;2023-02-21T05:35:10;75956.44;;;-141.45;67.64
31403;BME280;18039;52.188;21.024;2023-02-21T05:37:38;75954.41;;;-141.45;68.57
31403;BME280;18039;52.188;21.024;2023-02-21T05:40:05;75954.41;;;-141.45;67.75
31403;BME280;18039;52.188;21.024;2023-02-21T05:42:33;75952.38;;;-141.45;68.09
31403;BME280;18039;52.188;21.024;2023-02-21T05:45:02;75932.13;;;-141.45;68.77
31403;BME280;18039;52.188;21.024;2023-02-21T05:47:33;75928.06;;;-141.45;69.35
31403;BME280;18039;52.188;21.024;2023-02-21T05:50:01;75960.50;;;-141.45;69.13
31403;BME280;18039;52.188;21.024;2023-02-21T05:52:30;75960.50;;;-141.45;70.36
31403;BME280;18039;52.188;21.024;2023-02-21T05:54:57;75964.56;;;-141.45;70.86
31403;BME280;18039;52.188;21.024;2023-02-21T05:57:24;75960.50;;;-141.45;71.57
31403;BME280;18039;52.188;21.024;2023-02-21T05:59:52;75976.72;;;-141.45;72.52
31403;BME280;18039;52.188;21.024;2023-02-21T06:02:19;75970.63;;;-141.45;71.70
31403;BME280;18039;52.188;21.024;2023-02-21T06:04:46;75966.56;;;-141.45;71.66
31403;BME280;18039;52.188;21.024;2023-02-21T06:07:13;75956.44;;;-141.45;70.64
31403;BME280;18039;52.188;21.024;2023-02-21T06:09:40;75964.56;;;-141.45;70.62
31403;BME280;18039;52.188;21.024;2023-02-21T06:12:07;75964.56;;;-141.45;70.66
31403;BME280;18039;52.188;21.024;2023-02-21T06:14:35;75968.59;;;-141.45;69.25
31403;BME280;18039;52.188;21.024;2023-02-21T06:17:02;75972.66;;;-141.45;69.83
31403;BME280;18039;52.188;21.024;2023-02-21T06:19:29;75980.75;;;-141.45;70.03
31403;BME280;18039;52.188;21.024;2023-02-21T06:21:59;75956.44;;;-141.45;70.14
31403;BME280;18039;52.188;21.024;2023-02-21T06:24:26;75974.69;;;-141.45;69.69
31403;BME280;18039;52.188;21.024;2023-02-21T06:26:53;75976.72;;;-141.45;68.72
31403;BME280;18039;52.188;21.024;2023-02-21T06:29:21;75978.75;;;-141.45;68.87
31403;BME280;18039;52.188;21.024;2023-02-21T06:31:48;75982.78;;;-141.45;68.66
31403;BME280;18039;52.188;21.024;2023-02-21T06:34:16;75982.78;;;-141.45;68.21
31403;BME280;18039;52.188;21.024;2023-02-21T06:36:43;75988.88;;;-141.45;68.68
31403;BME280;18039;52.188;21.024;2023-02-21T06:39:11;75980.75;;;-141.45;68.57
31403;BME280;18039;52.188;21.024;2023-02-21T06:41:38;75976.72;;;-141.45;68.97
31403;BME280;18039;52.188;21.024;2023-02-21T06:44:06;75994.94;;;-141.45;68.34
31403;BME280;18039;52.188;21.024;2023-02-21T06:46:33;75980.75;;;-141.45;68.97
31403;BME280;18039;52.188;21.024;2023-02-21T06:49:04;75984.81;;;-141.45;68.90
31403;BME280;18039;52.188;21.024;2023-02-21T06:51:38;75988.88;;;-141.45;68.43
31403;BME280;18039;52.188;21.024;2023-02-21T06:54:06;75984.81;;;-141.45;69.51
31403;BME280;18039;52.188;21.024;2023-02-21T06:56:33;75988.88;;;-141.45;69.75
31403;BME280;18039;52.188;21.024;2023-02-21T06:59:01;75996.97;;;-141.45;68.98
31403;BME280;18039;52.188;21.024;2023-02-21T07:01:29;75992.94;;;-141.45;70.36
31403;BME280;18039;52.188;21.024;2023-02-21T07:03:57;75996.97;;;-141.45;70.11
31403;BME280;18039;52.188;21.024;2023-02-21T07:06:24;76013.19;;;-141.45;70.31
31403;BME280;18039;52.188;21.024;2023-02-21T07:08:55;76009.13;;;-141.45;71.93
31403;BME280;18039;52.188;21.024;2023-02-21T07:11:23;76051.69;;;-141.45;74.61
31403;BME280;18039;52.188;21.024;2023-02-21T07:13:51;76082.09;;;-141.45;75.20
31403;BME280;18039;52.188;21.024;2023-02-21T07:16:19;76065.88;;;-141.45;75.22
31403;BME280;18039;52.188;21.024;2023-02-21T07:18:47;76053.72;;;-141.45;75.06
31403;BME280;18039;52.188;21.024;2023-02-21T07:21:15;76057.78;;;-141.45;74.19
31403;BME280;18039;52.188;21.024;2023-02-21T07:23:43;76065.88;;;-141.45;74.70
31403;BME280;18039;52.188;21.024;2023-02-21T07:26:11;76069.94;;;-141.45;74.33
31403;BME280;18039;52.188;21.024;2023-02-21T07:28:39;76057.78;;;-141.45;74.73
31403;BME280;18039;52.188;21.024;2023-02-21T07:31:07;76063.88;;;-141.45;74.30
31403;BME280;18039;52.188;21.024;2023-02-21T07:33:37;76057.78;;;-141.45;73.94
31403;BME280;18039;52.188;21.024;2023-02-21T07:36:04;76078.06;;;-141.45;73.24
31403;BME280;18039;52.188;21.024;2023-02-21T07:38:32;76078.06;;;-141.45;73.28
31403;BME280;18039;52.188;21.024;2023-02-21T07:41:01;76082.09;;;-141.45;73.28
31403;BME280;18039;52.188;21.024;2023-02-21T07:43:30;76084.13;;;-141.45;73.62
31403;BME280;18039;52.188;21.024;2023-02-21T07:45:57;76086.16;;;-141.45;73.63
31403;BME280;18039;52.188;21.024;2023-02-21T07:48:24;76110.47;;;-141.45;73.40
31403;BME280;18039;52.188;21.024;2023-02-21T07:50:51;76090.22;;;-141.45;73.84
31403;BME280;18039;52.188;21.024;2023-02-21T07:53:19;76092.25;;;-141.45;73.55
31403;BME280;18039;52.188;21.024;2023-02-21T07:55:46;76094.25;;;-141.45;73.44
31403;BME280;18039;52.188;21.024;2023-02-21T07:58:14;76094.25;;;-141.45;73.06
31403;BME280;18039;52.188;21.024;2023-02-21T08:00:41;76090.22;;;-141.45;73.02
31403;BME280;18039;52.188;21.024;2023-02-21T08:03:11;76102.38;;;-141.45;73.55
31403;BME280;18039;52.188;21.024;2023-02-21T08:05:39;76098.31;;;-141.45;73.42
31403;BME280;18039;52.188;21.024;2023-02-21T08:08:08;76092.25;;;-141.45;73.30
31403;BME280;18039;52.188;21.024;2023-02-21T08:10:35;76098.31;;;-141.45;73.69
31403;BME280;18039;52.188;21.024;2023-02-21T08:13:03;76098.31;;;-141.45;73.46
31403;BME280;18039;52.188;21.024;2023-02-21T08:15:31;76074.00;;;-141.45;73.78
31403;BME280;18039;52.188;21.024;2023-02-21T08:17:58;76090.22;;;-141.45;73.91
31403;BME280;18039;52.188;21.024;2023-02-21T08:20:25;76086.16;;;-141.45;73.84
31403;BME280;18039;52.188;21.024;2023-02-21T08:22:53;76108.44;;;-141.45;74.99
31403;BME280;18039;52.188;21.024;2023-02-21T08:25:20;76122.63;;;-141.45;75.33
31403;BME280;18039;52.188;21.024;2023-02-21T08:27:47;76100.34;;;-141.45;74.80
31403;BME280;18039;52.188;21.024;2023-02-21T08:30:19;76110.47;;;-141.45;75.31
31403;BME280;18039;52.188;21.024;2023-02-21T08:32:48;76110.47;;;-141.45;75.15
31403;BME280;18039;52.188;21.024;2023-02-21T08:35:18;76126.69;;;-141.45;75.86
31403;BME280;18039;52.188;21.024;2023-02-21T08:37:47;76130.75;;;-141.45;76.36
31403;BME280;18039;52.188;21.024;2023-02-21T08:40:18;76134.78;;;-141.45;76.62
31403;BME280;18039;52.188;21.024;2023-02-21T08:42:50;76138.84;;;-141.45;75.99
31403;BME280;18039;52.188;21.024;2023-02-21T08:45:20;76142.91;;;-141.45;76.29
31403;BME280;18039;52.188;21.024;2023-02-21T08:47:48;76142.91;;;-141.45;76.90
31403;BME280;18039;52.188;21.024;2023-02-21T08:50:15;76126.69;;;-141.45;76.69
31403;BME280;18039;52.188;21.024;2023-02-21T08:52:45;76146.97;;;-141.45;76.70
31403;BME280;18039;52.188;21.024;2023-02-21T08:55:12;76126.69;;;-141.45;76.40
31403;BME280;18039;52.188;21.024;2023-02-21T08:57:43;76134.78;;;-141.45;76.52
31403;BME280;18039;52.188;21.024;2023-02-21T09:00:10;76136.81;;;-141.45;76.43
31403;BME280;18039;52.188;21.024;2023-02-21T09:02:40;76159.13;;;-141.45;77.48
31403;BME280;18039;52.188;21.024;2023-02-21T09:05:13;76151.00;;;-141.45;78.17
31403;BME280;18039;52.188;21.024;2023-02-21T09:07:42;76159.13;;;-141.45;77.40
31403;BME280;18039;52.188;21.024;2023-02-21T09:10:10;76151.00;;;-141.45;77.58
31403;BME280;18039;52.188;21.024;2023-02-21T09:12:37;76169.25;;;-141.45;78.70
31403;BME280;18039;52.188;21.024;2023-02-21T09:15:06;76175.34;;;-141.45;79.12
31403;BME280;18039;52.188;21.024;2023-02-21T09:17:35;76167.22;;;-141.45;79.33
31403;BME280;18039;52.188;21.024;2023-02-21T09:20:06;76159.13;;;-141.45;79.20
31403;BME280;18039;52.188;21.024;2023-02-21T09:22:34;76179.38;;;-141.45;80.26
31403;BME280;18039;52.188;21.024;2023-02-21T09:25:02;76183.44;;;-141.45;80.34
31403;BME280;18039;52.188;21.024;2023-02-21T09:27:30;76191.56;;;-141.45;80.92
31403;BME280;18039;52.188;21.024;2023-02-21T09:30:13;76183.44;;;-141.45;80.53
31403;BME280;18039;52.188;21.024;2023-02-21T09:32:40;76165.19;;;-141.45;80.35
31403;BME280;18039;52.188;21.024;2023-02-21T09:35:09;76169.25;;;-141.45;80.39
31403;BME280;18039;52.188;21.024;2023-02-21T09:37:38;76163.19;;;-141.45;80.53
31403;BME280;18039;52.188;21.024;2023-02-21T09:40:14;76155.06;;;-141.45;79.52
31403;BME280;18039;52.188;21.024;2023-02-21T09:42:41;76138.84;;;-141.45;79.79
31403;BME280;18039;52.188;21.024;2023-02-21T09:45:14;76165.19;;;-141.45;79.52
31403;BME280;18039;52.188;21.024;2023-02-21T09:47:43;76175.34;;;-141.45;80.25
31403;BME280;18039;52.188;21.024;2023-02-21T09:50:14;76183.44;;;-141.45;80.65
31403;BME280;18039;52.188;21.024;2023-02-21T09:52:43;76191.56;;;-141.45;80.70
31403;BME280;18039;52.188;21.024;2023-02-21T09:55:29;76187.50;;;-141.45;80.40
31403;BME280;18039;52.188;21.024;2023-02-21T09:57:58;76173.31;;;-141.45;80.84
31403;BME280;18039;52.188;21.024;2023-02-21T10:00:33;76179.38;;;-141.45;80.49
31403;BME280;18039;52.188;21.024;2023-02-21T10:05:44;76171.28;;;-141.45;80.79
31403;BME280;18039;52.188;21.024;2023-02-21T10:14:45;76171.28;;;-141.45;80.92
31403;BME280;18039;52.188;21.024;2023-02-21T10:17:16;76146.97;;;-141.45;80.63
31403;BME280;18039;52.188;21.024;2023-02-21T10:19:49;76175.34;;;-141.45;79.41
31403;BME280;18039;52.188;21.024;2023-02-21T10:24:47;76183.44;;;-141.45;80.19
31403;BME280;18039;52.188;21.024;2023-02-21T10:27:21;76191.56;;;-141.45;80.44
31403;BME280;18039;52.188;21.024;2023-02-21T10:30:00;76161.16;;;-141.45;80.12
31403;BME280;18039;52.188;21.024;2023-02-21T10:32:27;76151.00;;;-141.45;80.28
31403;BME280;18039;52.188;21.024;2023-02-21T10:34:55;76146.97;;;-141.45;80.17
31403;BME280;18039;52.188;21.024;2023-02-21T10:37:40;76171.28;;;-141.45;79.65
31403;BME280;18039;52.188;21.024;2023-02-21T10:40:33;76136.81;;;-141.45;80.34
31403;BME280;18039;52.188;21.024;2023-02-21T10:45:41;76108.44;;;-141.45;78.40
31403;BME280;18039;52.188;21.024;2023-02-21T10:48:13;76114.53;;;-141.45;78.37
31403;BME280;18039;52.188;21.024;2023-02-21T10:53:23;76098.31;;;-141.45;76.73
31403;BME280;18039;52.188;21.024;2023-02-21T10:59:06;76118.59;;;-141.45;77.21
31403;BME280;18039;52.188;21.024;2023-02-21T11:01:40;76144.94;;;-141.45;77.44
31403;BME280;18039;52.188;21.024;2023-02-21T11:06:50;76159.13;;;-141.45;77.31
31403;BME280;18039;52.188;21.024;2023-02-21T11:17:31;76159.13;;;-141.45;76.77
31403;BME280;18039;52.188;21.024;2023-02-21T11:20:20;76171.28;;;-141.45;76.06
31403;BME280;18039;52.188;21.024;2023-02-21T11:22:51;76151.00;;;-141.45;76.82
31403;BME280;18039;52.188;21.024;2023-02-21T11:25:28;76116.56;;;-141.45;74.98
31403;BME280;18039;52.188;21.024;2023-02-21T11:30:24;76122.63;;;-141.45;74.31
31403;BME280;18039;52.188;21.024;2023-02-21T11:32:55;76140.88;;;-141.45;72.95
31403;BME280;18039;52.188;21.024;2023-02-21T11:35:31;76146.97;;;-141.45;74.17
31403;BME280;18039;52.188;21.024;2023-02-21T11:38:06;76118.59;;;-141.45;72.83
31403;BME280;18039;52.188;21.024;2023-02-21T11:40:44;76124.66;;;-141.45;72.07
31403;BME280;18039;52.188;21.024;2023-02-21T11:43:46;76146.97;;;-141.45;71.96
31403;BME280;18039;52.188;21.024;2023-02-21T11:46:35;76110.47;;;-141.45;71.82
31403;BME280;18039;52.188;21.024;2023-02-21T11:51:57;76108.44;;;-141.45;72.16
31403;BME280;18039;52.188;21.024;2023-02-21T11:54:27;76094.25;;;-141.45;72.73
31403;BME280;18039;52.188;21.024;2023-02-21T12:24:22;76130.75;;;-141.45;70.27
31403;BME280;18039;52.188;21.024;2023-02-21T12:27:06;76163.19;;;-141.45;69.82
31403;BME280;18039;52.188;21.024;2023-02-21T12:33:02;76149.00;;;-141.45;69.62
31403;BME280;18039;52.188;21.024;2023-02-21T12:51:59;76017.25;;;-141.45;67.19
31403;BME280;18039;52.188;21.024;2023-02-21T12:54:35;76049.69;;;-141.45;64.70
31403;BME280;18039;52.188;21.024;2023-02-21T12:57:10;76049.69;;;-141.45;65.17
31403;BME280;18039;52.188;21.024;2023-02-21T13:02:30;76074.00;;;-141.45;66.99
31403;BME280;18039;52.188;21.024;2023-02-21T13:05:10;76080.06;;;-141.45;67.39
31403;BME280;18039;52.188;21.024;2023-02-21T13:07:47;76118.59;;;-141.45;67.28
31403;BME280;18039;52.188;21.024;2023-02-21T13:10:22;76146.97;;;-141.45;68.16
31403;BME280;18039;52.188;21.024;2023-02-21T13:13:14;76146.97;;;-141.45;69.07
31403;BME280;18039;52.188;21.024;2023-02-21T13:15:43;76155.06;;;-141.45;69.01
31403;BME280;18039;52.188;21.024;2023-02-21T13:21:07;76187.50;;;-141.45;70.74
31403;BME280;18039;52.188;21.024;2023-02-21T13:29:18;76252.34;;;-141.45;73.10
31403;BME280;18039;52.188;21.024;2023-02-21T13:31:57;76232.09;;;-141.45;73.45
31403;BME280;18039;52.188;21.024;2023-02-21T13:34:28;76228.03;;;-141.45;74.03
31403;BME280;18039;52.188;21.024;2023-02-21T13:37:01;76236.16;;;-141.45;74.39
31403;BME280;18039;52.188;21.024;2023-02-21T13:39:32;76248.31;;;-141.45;74.59
31403;BME280;18039;52.188;21.024;2023-02-21T13:42:19;76240.19;;;-141.45;75.35
31403;BME280;18039;52.188;21.024;2023-02-21T13:44:49;76240.19;;;-141.45;74.58
31403;BME280;18039;52.188;21.024;2023-02-21T13:47:22;76236.16;;;-141.45;73.72
31403;BME280;18039;52.188;21.024;2023-02-21T13:49:56;76234.13;;;-141.45;74.69
31403;BME280;18039;52.188;21.024;2023-02-21T13:52:35;76228.03;;;-141.45;73.97
31403;BME280;18039;52.188;21.024;2023-02-21T14:10:48;76268.56;;;-141.45;75.71
31403;BME280;18039;52.188;21.024;2023-02-21T14:16:15;76294.91;;;-141.45;74.58
31403;BME280;18039;52.188;21.024;2023-02-21T14:19:11;76276.69;;;-141.45;74.35
31403;BME280;18039;52.188;21.024;2023-02-21T14:21:46;76264.53;;;-141.45;73.27
31403;BME280;18039;52.188;21.024;2023-02-21T14:24:21;76248.31;;;-141.45;71.76
31403;BME280;18039;52.188;21.024;2023-02-21T14:49:00;76301.00;;;-141.45;70.66
31403;BME280;18039;52.188;21.024;2023-02-21T14:57:33;76311.13;;;-141.45;72.55
31403;BME280;18039;52.188;21.024;2023-02-21T15:05:42;76333.44;;;-141.45;73.35
31403;BME280;18039;52.188;21.024;2023-02-21T15:08:15;76329.38;;;-141.45;73.47
31403;BME280;18039;52.188;21.024;2023-02-21T15:10:45;76337.50;;;-141.45;73.15
31403;BME280;18039;52.188;21.024;2023-02-21T15:15:59;76337.50;;;-141.45;73.19
31403;BME280;18039;52.188;21.024;2023-02-21T15:21:17;76335.47;;;-141.45;72.74
31403;BME280;18039;52.188;21.024;2023-02-21T15:26:32;76361.81;;;-141.45;73.85
31403;BME280;18039;52.188;21.024;2023-02-21T15:29:15;76361.81;;;-141.45;72.34
31403;BME280;18039;52.188;21.024;2023-02-21T15:31:54;76361.81;;;-141.45;73.26
31403;BME280;18039;52.188;21.024;2023-02-21T15:37:14;76365.88;;;-141.45;72.72
31403;BME280;18039;52.188;21.024;2023-02-21T15:39:48;76373.97;;;-141.45;73.13
31403;BME280;18039;52.188;21.024;2023-02-21T15:42:19;76378.03;;;-141.45;73.32
31403;BME280;18039;52.188;21.024;2023-02-21T15:44:55;76382.09;;;-141.45;73.73
31403;BME280;18039;52.188;21.024;2023-02-21T15:47:25;76390.19;;;-141.45;72.69
31403;BME280;18039;52.188;21.024;2023-02-21T15:50:25;76394.25;;;-141.45;73.52
31403;BME280;18039;52.188;21.024;2023-02-21T15:53:19;76390.19;;;-141.45;73.17
31403;BME280;18039;52.188;21.024;2023-02-21T15:55:48;76406.41;;;-141.45;73.86
31403;BME280;18039;52.188;21.024;2023-02-21T15:58:25;76402.34;;;-141.45;73.05
31403;BME280;18039;52.188;21.024;2023-02-21T16:03:37;76402.34;;;-141.45;72.82
31403;BME280;18039;52.188;21.024;2023-02-21T16:08:54;76418.56;;;-141.45;73.00
31403;BME280;18039;52.188;21.024;2023-02-21T16:11:36;76418.56;;;-141.45;72.52
31403;BME280;18039;52.188;21.024;2023-02-21T16:14:06;76426.69;;;-141.45;73.44
31403;BME280;18039;52.188;21.024;2023-02-21T16:16:40;76432.75;;;-141.45;73.28
31403;BME280;18039;52.188;21.024;2023-02-21T16:19:08;76434.78;;;-141.45;73.62